Latest Weather Observations for Penrith

IDN60801

Issued at 11:35 pm EST Monday 1 September 2014 (issued every 30 minutes, with the page automatically refreshed every 10 minutes)

About weather observations | Map of weather stations | Latest weather observations for NSW | Other Formats
Station Details ID: 067113 Name: PENRITH LAKES AWS Lat: -33.72 Lon: 150.68 Height: 24.7 m
Data from the previous 72 hours. | See also: Recent months at Penrith
Date/Time
EST
Temp
°C
App
Temp
°C
Dew
Point
Rel
Hum
%
Delta-T
°C
Wind Press
QNH
hPa
Press
MSL
hPa
Rain
since 9 am
mm
Dir
 
Spd
km/h
Gust
km/h
Spd
kts
Gust
kts
01/11:30pm 13.5 13.3 9.2 75 2.2 WSW 0 0 0 0 - - 0.0
01/11:00pm 14.2 14.0 9.0 71 2.6 NW 0 0 0 0 - - 0.0
01/10:30pm 14.2 13.9 8.8 70 2.7 CALM 0 0 0 0 - - 0.0
01/10:00pm 14.5 13.5 8.9 69 2.8 NW 4 6 2 3 - - 0.0
01/09:30pm 15.0 13.8 9.4 69 2.9 NW 6 7 3 4 - - 0.0
01/09:00pm 15.1 13.6 8.3 64 3.4 NW 6 7 3 4 - - 0.0
01/08:30pm 15.7 14.0 8.4 62 3.7 NNW 7 9 4 5 - - 0.0
01/08:00pm 15.8 14.7 8.3 61 3.8 NNW 4 7 2 4 - - 0.0
01/07:30pm 16.5 16.1 8.2 58 4.2 CALM 0 2 0 1 - - 0.0
01/07:00pm 18.1 15.4 5.7 44 6.1 W 9 13 5 7 - - 0.0
01/06:30pm 19.4 16.2 5.1 39 7.0 W 11 15 6 8 - - 0.0
01/06:00pm 19.6 16.9 5.6 40 6.9 WNW 9 11 5 6 - - 0.0
01/05:30pm 20.7 17.8 4.7 35 7.8 W 9 13 5 7 - - 0.0
01/05:00pm 21.8 18.9 4.8 33 8.4 W 9 13 5 7 - - 0.0
01/04:30pm 22.0 19.7 5.8 35 8.1 WNW 7 9 4 5 - - 0.0
01/04:00pm 22.7 20.1 4.2 30 9.1 WNW 7 11 4 6 - - 0.0
01/03:30pm 23.4 20.0 3.9 28 9.5 WNW 11 17 6 9 - - 0.0
01/03:00pm 24.0 20.0 2.8 25 10.2 NW 13 19 7 10 - - 0.0
01/02:30pm 23.9 21.0 6.7 33 8.9 NNE 11 17 6 9 - - 0.0
01/02:00pm 24.3 21.7 7.9 35 8.7 NNE 11 15 6 8 - - 0.0
01/01:30pm 23.2 20.0 6.9 35 8.4 NNE 13 20 7 11 - - 0.0
01/01:00pm 22.8 20.3 8.1 39 7.7 N 11 19 6 10 - - 0.0
01/12:30pm 22.0 20.1 7.4 39 7.6 NNE 7 11 4 6 - - 0.0
01/12:00pm 21.3 19.7 8.6 44 6.7 N 7 13 4 7 - - 0.0
01/11:30am 19.8 17.4 8.5 48 5.9 N 11 13 6 7 - - 0.0
01/11:00am 19.2 18.2 10.2 56 4.8 N 6 9 3 5 - - 0.0
01/10:30am 17.1 15.8 10.0 63 3.7 N 7 11 4 6 - - 0.0
01/10:00am 14.9 13.7 9.7 71 2.7 NNW 6 9 3 5 - - 0.0
01/09:30am 13.8 12.9 9.3 74 2.3 NE 4 4 2 2 - - 0.0
01/09:00am 12.6 12.1 9.4 81 1.6 NE 2 4 1 2 - - 0.2
01/08:30am 11.0 10.3 8.6 85 1.2 SSE 2 4 1 2 - - 0.2
01/08:00am 9.9 9.1 8.3 90 0.8 SSE 2 4 1 2 - - 0.2
01/07:30am 9.5 9.2 8.7 95 0.4 CALM 0 0 0 0 - - 0.2
01/07:00am 8.4 7.9 8.0 97 0.2 CALM 0 2 0 1 - - 0.2
01/06:30am 7.9 6.9 7.5 97 0.2 NW 2 4 1 2 - - 0.2
01/06:00am 8.1 7.6 7.7 97 0.2 WNW 0 0 0 0 - - 0.0
01/05:30am 8.0 7.4 7.4 96 0.3 CALM 0 0 0 0 - - 0.0
01/05:00am 8.2 7.6 7.6 96 0.3 CALM 0 0 0 0 - - 0.0
01/04:30am 8.3 7.8 7.7 96 0.3 WNW 0 0 0 0 - - 0.0
01/04:00am 9.0 8.6 8.4 96 0.3 CALM 0 0 0 0 - - 0.0
01/03:30am 9.3 9.0 8.7 96 0.3 CALM 0 0 0 0 - - 0.0
01/03:00am 9.4 8.7 8.6 95 0.4 W 2 2 1 1 - - 0.0
01/02:30am 9.7 9.1 8.9 95 0.4 W 2 2 1 1 - - 0.0
01/02:00am 9.8 8.8 9.0 95 0.4 W 4 4 2 2 - - 0.0
01/01:30am 10.3 9.8 9.2 93 0.5 W 2 4 1 2 - - 0.0
01/01:00am 10.5 10.4 9.6 94 0.5 CALM 0 0 0 0 - - 0.0
01/12:30am 10.7 10.6 9.6 93 0.6 SE 0 0 0 0 - - 0.0
01/12:00am 11.2 11.3 10.0 92 0.6 S 0 0 0 0 - - 0.0
 
Date/Time
EST
Temp
°C
App
Temp
°C
Dew
Point
Rel
Hum
%
Delta-T
°C
Wind Press
QNH
hPa
Press
MSL
hPa
Rain
since 9 am
mm
Dir
 
Spd
km/h
Gust
km/h
Spd
kts
Gust
kts
31/11:30pm 11.4 11.5 10.0 91 0.7 CALM 0 0 0 0 - - 0.0
31/11:00pm 11.7 11.8 10.1 90 0.8 CALM 0 0 0 0 - - 0.0
31/10:30pm 12.0 11.9 9.6 85 1.2 CALM 0 0 0 0 - - 0.0
31/10:00pm 12.5 12.6 10.2 86 1.2 CALM 0 0 0 0 - - 0.0
31/09:30pm 12.3 11.4 9.3 82 1.5 SSW 4 4 2 2 - - 0.0
31/09:00pm 13.4 12.3 9.8 79 1.8 SSW 6 6 3 3 - - 0.0
31/08:30pm 13.7 12.9 9.7 77 2.1 SSW 4 6 2 3 - - 0.0
31/08:00pm 13.7 12.5 9.7 77 2.1 SW 6 7 3 4 - - 0.0
31/07:30pm 15.4 15.2 10.6 73 2.5 ESE 2 4 1 2 - - 0.0
31/07:00pm 15.7 15.0 10.2 70 2.9 W 4 4 2 2 - - 0.0
31/06:30pm 16.8 16.1 10.0 64 3.6 ESE 4 7 2 4 - - 0.0
31/06:00pm 17.9 16.8 10.0 60 4.2 E 6 7 3 4 - - 0.0
31/05:30pm 18.8 17.5 9.3 54 5.0 N 6 7 3 4 - - 0.0
31/05:00pm 20.8 18.7 6.0 38 7.4 NNE 6 9 3 5 - - 0.0
31/04:30pm 21.5 19.6 6.6 38 7.6 NNE 6 11 3 6 - - 0.0
31/04:00pm 21.6 20.0 6.3 37 7.7 SE 4 6 2 3 - - 0.0
31/03:30pm 22.0 20.4 6.3 36 8.0 NE 4 9 2 5 - - 0.0
31/03:00pm 21.7 19.4 5.6 35 8.0 NNE 7 11 4 6 - - 0.0
31/02:30pm 22.0 20.4 6.3 36 8.0 NNW 4 9 2 5 - - 0.0
31/02:00pm 22.1 20.5 6.3 36 8.0 NNW 4 6 2 3 - - 0.0
31/01:30pm 21.6 19.8 7.1 39 7.4 ENE 6 11 3 6 - - 0.0
31/01:00pm 21.0 19.4 6.5 39 7.3 N 4 7 2 4 - - 0.0
31/12:30pm 20.7 18.9 7.3 42 6.9 NNE 6 9 3 5 - - 0.0
31/12:00pm 20.0 18.2 7.1 43 6.6 NE 6 9 3 5 - - 0.0
31/11:30am 19.4 17.8 7.8 47 6.0 SE 6 9 3 5 - - 0.0
31/11:00am 19.6 18.4 8.0 47 6.0 NE 4 7 2 4 - - 0.0
31/10:30am 18.8 17.9 7.9 49 5.6 S 2 9 1 5 - - 0.0
31/10:00am 17.7 16.7 7.2 50 5.3 S 2 4 1 2 - - 0.0
31/09:30am 17.3 16.4 7.9 54 4.8 N 2 4 1 2 - - 0.0
31/09:00am 16.0 14.7 7.7 58 4.2 N 4 6 2 3 - - 0.0
31/08:30am 14.9 14.0 7.9 63 3.5 E 2 4 1 2 - - 0.0
31/08:00am 13.0 12.1 7.7 70 2.6 ESE 2 4 1 2 - - 0.0
31/07:30am 11.0 9.8 8.2 83 1.4 ESE 4 6 2 3 - - 0.0
31/07:00am 10.3 9.7 7.5 83 1.3 CALM 0 0 0 0 - - 0.0
31/06:30am 9.8 9.2 7.4 85 1.1 CALM 0 0 0 0 - - 0.0
31/06:00am 9.7 8.2 7.0 83 1.3 SSE 4 6 2 3 - - 0.0
31/05:30am 9.8 8.4 7.1 83 1.3 SSE 4 7 2 4 - - 0.0
31/05:00am 10.4 9.3 7.1 80 1.6 S 2 6 1 3 - - 0.0
31/04:30am 11.0 9.1 7.7 80 1.6 S 7 9 4 5 - - 0.0
31/04:00am 10.8 10.3 7.7 81 1.5 CALM 0 4 0 2 - - 0.0
31/03:30am 11.7 10.8 7.8 77 1.9 SW 2 6 1 3 - - 0.0
31/03:00am 12.0 10.3 7.5 74 2.2 S 6 9 3 5 - - 0.0
31/02:30am 12.5 11.1 7.2 70 2.6 S 4 6 2 3 - - 0.0
31/02:00am 13.4 11.6 7.8 69 2.8 S 7 11 4 6 - - 0.0
31/01:30am 13.4 11.7 7.6 68 2.8 S 6 9 3 5 - - 0.0
31/01:00am 13.8 12.2 7.8 67 3.0 SSW 6 7 3 4 - - 0.0
31/12:30am 13.9 12.3 8.1 68 2.9 S 6 7 3 4 - - 0.0
31/12:00am 13.9 12.3 7.9 67 3.0 S 6 9 3 5 - - 0.0
 
Date/Time
EST
Temp
°C
App
Temp
°C
Dew
Point
Rel
Hum
%
Delta-T
°C
Wind Press
QNH
hPa
Press
MSL
hPa
Rain
since 9 am
mm
Dir
 
Spd
km/h
Gust
km/h
Spd
kts
Gust
kts
30/11:30pm 14.1 12.4 8.3 68 2.9 S 7 9 4 5 - - 0.0
30/11:00pm 14.1 12.1 8.5 69 2.8 SSW 9 13 5 7 - - 0.0
30/10:30pm 14.1 11.7 8.5 69 2.8 S 11 15 6 8 - - 0.0
30/10:00pm 13.7 12.7 8.7 72 2.5 SW 4 7 2 4 - - 0.0
30/09:30pm 13.5 12.1 8.8 73 2.4 S 6 9 3 5 - - 0.0
30/09:00pm 13.7 12.0 8.5 71 2.6 S 7 9 4 5 - - 0.0
30/08:30pm 14.6 13.2 8.8 68 2.9 S 6 9 3 5 - - 0.0
30/08:00pm 14.8 13.9 9.2 69 2.9 S 4 6 2 3 - - 0.0
30/07:30pm 15.2 13.9 9.1 67 3.1 SSW 6 9 3 5 - - 0.0
30/07:00pm 15.1 13.7 9.0 67 3.1 S 6 9 3 5 - - 0.0
30/06:30pm 15.4 14.0 8.9 65 3.3 S 6 9 3 5 - - 0.0
30/06:00pm 15.6 14.3 9.3 66 3.3 S 6 9 3 5 - - 0.0
30/05:30pm 16.1 14.3 9.3 64 3.5 S 9 13 5 7 - - 0.0
30/05:00pm 15.9 14.4 9.1 64 3.5 S 7 11 4 6 - - 0.0
30/04:30pm 16.4 14.6 9.3 63 3.7 S 9 17 5 9 - - 0.0
30/04:00pm 17.3 13.8 8.7 57 4.4 SSW 17 32 9 17 - - 0.0
30/03:30pm 17.3 15.0 9.0 58 4.3 SSW 11 19 6 10 - - 0.0
30/03:00pm 16.8 12.9 8.8 59 4.1 SSW 19 30 10 16 - - 0.0
30/02:30pm 17.5 13.6 8.6 56 4.6 SSW 19 26 10 14 - - 0.0
30/02:00pm 16.9 13.8 8.8 59 4.2 SSW 15 24 8 13 - - 0.0
30/01:30pm 16.2 12.7 8.9 62 3.8 SW 17 24 9 13 - - 0.0
30/01:00pm 15.9 12.3 8.4 61 3.8 SSW 17 28 9 15 - - 0.0
30/12:30pm 15.5 13.7 9.6 68 3.1 SSW 9 20 5 11 - - 0.0
30/12:00pm 16.8 13.4 7.7 55 4.6 SSW 15 20 8 11 - - 0.0
30/11:30am 16.4 13.1 7.9 57 4.3 S 15 22 8 12 - - 0.0
30/11:00am 17.3 13.5 7.6 53 4.9 SSW 17 28 9 15 - - 0.0
30/10:30am 16.4 11.1 6.8 53 4.7 SSW 24 35 13 19 - - 0.0
30/10:00am 16.3 11.8 7.0 54 4.6 SSW 20 32 11 17 - - 0.0
30/09:30am 15.8 11.5 6.8 55 4.4 SSW 19 28 10 15 - - 0.0
30/09:00am 15.0 10.5 6.3 56 4.2 SW 19 26 10 14 - - 0.0
30/08:30am 14.6 10.9 6.2 57 4.0 SSW 15 20 8 11 - - 0.0
30/08:00am 14.4 9.8 5.7 56 4.1 SW 19 30 10 16 - - 0.0
30/07:30am 14.1 9.5 5.5 56 4.1 SSW 19 28 10 15 - - 0.0
30/07:00am 13.8 9.9 5.4 57 3.9 SSW 15 24 8 13 - - 0.0
30/06:30am 13.7 9.0 5.1 56 4.0 SSW 19 32 10 17 - - 0.0
30/06:00am 13.5 8.7 4.9 56 4.0 SSW 19 30 10 16 - - 0.0
30/05:30am 13.2 9.2 4.9 57 3.8 SSW 15 24 8 13 - - 0.0
30/05:00am 12.9 9.2 4.6 57 3.8 SSW 13 24 7 13 - - 0.0
30/04:30am 12.6 8.8 4.1 56 3.8 SSW 13 20 7 11 - - 0.0
30/04:00am 13.0 8.5 4.2 55 4.0 SSW 17 22 9 12 - - 0.0
30/03:30am 13.1 8.9 4.0 54 4.1 SSW 15 28 8 15 - - 0.0
30/03:00am 13.1 8.6 4.0 54 4.1 SSW 17 24 9 13 - - 0.0
30/02:30am 13.0 8.9 4.2 55 4.0 SW 15 26 8 14 - - 0.0
30/02:00am 12.7 9.0 4.2 56 3.9 SSW 13 19 7 10 - - 0.0
30/01:30am 12.9 9.1 4.1 55 4.0 SSW 13 22 7 12 - - 0.0
30/01:00am 12.7 8.9 3.9 55 4.0 SSW 13 22 7 12 - - 0.0
30/12:30am 12.8 8.6 3.7 54 4.1 SSW 15 22 8 12 - - 0.0
30/12:00am 12.9 8.5 4.6 57 3.8 SSW 17 24 9 13 - - 0.0

Other Formats:

Comma delimited format used in spreadsheet applications
http://www.bom.gov.au/fwo/IDN60801/IDN60801.94763.axf

JavaScript Object Notation format (JSON) in row-major order
http://www.bom.gov.au/fwo/IDN60801/IDN60801.94763.json